createdAt,value
2018-05-08T00:00:12.136Z,19.45
2018-05-08T00:01:12.156Z,19.45
2018-05-08T00:02:12.304Z,19.37
2018-05-08T00:03:12.197Z,19.47
2018-05-08T00:04:12.225Z,19.32
2018-05-08T00:05:12.220Z,19.40
2018-05-08T00:06:12.233Z,19.34
2018-05-08T00:07:12.393Z,19.32
2018-05-08T00:08:12.253Z,19.37
2018-05-08T00:09:12.291Z,19.32
2018-05-08T00:10:12.317Z,19.34
2018-05-08T00:11:12.301Z,19.35
2018-05-08T00:12:12.416Z,19.37
2018-05-08T00:13:12.333Z,19.30
2018-05-08T00:14:12.391Z,19.17
2018-05-08T00:15:12.358Z,19.20
2018-05-08T00:16:12.375Z,19.16
2018-05-08T00:17:12.506Z,19.23
2018-05-08T00:18:12.422Z,19.24
2018-05-08T00:19:12.417Z,19.23
2018-05-08T00:20:12.463Z,19.27
2018-05-08T00:21:12.474Z,19.20
2018-05-08T00:22:12.570Z,19.19
2018-05-08T00:23:12.503Z,19.20
2018-05-08T00:24:12.504Z,19.19
2018-05-08T00:25:12.536Z,19.23
2018-05-08T00:26:12.519Z,19.20
2018-05-08T00:27:12.642Z,19.20
2018-05-08T00:28:12.554Z,19.28
2018-05-08T00:29:12.561Z,19.24
2018-05-08T00:30:12.576Z,19.19
2018-05-08T00:31:12.613Z,19.24
2018-05-08T00:32:12.708Z,19.23
2018-05-08T00:33:12.631Z,19.27
2018-05-08T00:34:12.642Z,19.20
2018-05-08T00:35:12.646Z,19.24
2018-05-08T00:36:12.697Z,19.19
2018-05-08T00:37:12.677Z,19.23
2018-05-08T00:38:12.826Z,19.24
2018-05-08T00:39:12.713Z,19.24
2018-05-08T00:40:12.753Z,19.23
2018-05-08T00:41:12.737Z,19.24
2018-05-08T00:42:12.767Z,19.27
2018-05-08T00:43:12.897Z,19.23
2018-05-08T00:44:12.786Z,19.24
2018-05-08T00:45:12.796Z,19.17
2018-05-08T00:46:12.817Z,19.23
2018-05-08T00:47:12.860Z,19.25
2018-05-08T00:48:12.938Z,19.23
2018-05-08T00:49:12.871Z,19.24
2018-05-08T00:50:12.867Z,19.20
2018-05-08T00:51:12.954Z,19.25
2018-05-08T00:52:12.913Z,19.24
2018-05-08T00:53:13.043Z,19.28
2018-05-08T00:54:12.931Z,19.20
2018-05-08T00:55:12.971Z,19.35
2018-05-08T00:56:12.971Z,19.28
2018-05-08T00:57:12.967Z,19.35
2018-05-08T00:58:13.145Z,19.37
2018-05-08T00:59:13.013Z,19.37
2018-05-08T01:00:13.042Z,19.30
2018-05-08T01:01:13.044Z,19.35
2018-05-08T01:02:13.053Z,19.25
2018-05-08T01:03:13.193Z,19.35
2018-05-08T01:04:13.100Z,19.35
2018-05-08T01:05:13.088Z,19.31
2018-05-08T01:06:13.106Z,19.37
2018-05-08T01:07:13.115Z,19.34
2018-05-08T01:08:13.235Z,19.34
2018-05-08T01:09:13.146Z,19.28
2018-05-08T01:10:13.169Z,19.31
2018-05-08T01:11:13.176Z,19.25
2018-05-08T01:12:13.199Z,19.35
2018-05-08T01:13:13.308Z,19.32
2018-05-08T01:14:13.247Z,19.35
2018-05-08T01:15:13.233Z,19.35
2018-05-08T01:16:13.247Z,19.34
2018-05-08T01:17:13.291Z,19.31
2018-05-08T01:18:13.406Z,19.34
2018-05-08T01:19:13.326Z,19.32
2018-05-08T01:20:13.319Z,19.31
2018-05-08T01:21:13.327Z,19.34
2018-05-08T01:22:13.335Z,19.38
2018-05-08T01:23:13.459Z,19.50
2018-05-08T01:24:13.370Z,19.43
2018-05-08T01:25:13.383Z,19.52
2018-05-08T01:26:13.403Z,19.50
2018-05-08T01:27:13.418Z,19.61
2018-05-08T01:28:13.523Z,19.55
2018-05-08T01:29:13.444Z,19.56
2018-05-08T01:30:13.456Z,19.50
2018-05-08T01:31:13.500Z,19.45
2018-05-08T01:32:13.511Z,19.52
2018-05-08T01:33:13.606Z,19.47
2018-05-08T01:34:13.512Z,19.45
2018-05-08T01:35:13.524Z,19.55
2018-05-08T01:36:13.550Z,19.47
2018-05-08T01:37:13.559Z,19.55
2018-05-08T01:38:13.695Z,19.52
2018-05-08T01:39:13.586Z,19.53
2018-05-08T01:40:13.634Z,19.47
2018-05-08T01:41:13.643Z,19.55
2018-05-08T01:42:13.649Z,19.53
2018-05-08T01:43:13.744Z,19.47
2018-05-08T01:44:13.789Z,19.50
2018-05-08T01:45:13.676Z,19.45
2018-05-08T01:46:13.696Z,19.37
2018-05-08T01:47:13.730Z,19.45
2018-05-08T01:48:13.751Z,19.49
2018-05-08T01:49:13.849Z,19.40
2018-05-08T01:50:13.741Z,19.31
2018-05-08T01:51:13.792Z,19.35
2018-05-08T01:52:13.769Z,19.42
2018-05-08T01:53:13.791Z,19.35
2018-05-08T01:54:13.909Z,19.34
2018-05-08T01:55:13.850Z,19.38
2018-05-08T01:56:13.854Z,19.31
2018-05-08T01:57:13.853Z,19.37
2018-05-08T01:58:13.861Z,19.35
2018-05-08T01:59:13.984Z,19.32
2018-05-08T02:00:13.927Z,19.42
2018-05-08T02:01:13.909Z,19.32
2018-05-08T02:02:13.955Z,19.34
2018-05-08T02:03:13.950Z,19.34
2018-05-08T02:04:14.106Z,19.34
2018-05-08T02:05:13.970Z,19.37
2018-05-08T02:06:13.982Z,19.42
2018-05-08T02:07:13.999Z,19.34
2018-05-08T02:08:14.010Z,19.32
2018-05-08T02:09:14.132Z,19.35
2018-05-08T02:10:14.065Z,19.34
2018-05-08T02:11:14.073Z,19.40
2018-05-08T02:12:14.098Z,19.35
2018-05-08T02:13:14.112Z,19.31
2018-05-08T02:14:14.201Z,19.42
2018-05-08T02:15:14.142Z,19.38
2018-05-08T02:16:14.137Z,19.50
2018-05-08T02:17:14.170Z,19.45
2018-05-08T02:18:14.151Z,19.34
2018-05-08T02:19:14.280Z,19.32
2018-05-08T02:20:14.199Z,19.40
2018-05-08T02:21:14.229Z,19.32
2018-05-08T02:22:14.212Z,19.28
2018-05-08T02:23:14.233Z,19.43
2018-05-08T02:24:14.349Z,19.32
2018-05-08T02:25:14.269Z,19.37
2018-05-08T02:26:14.272Z,19.32
2018-05-08T02:27:14.317Z,19.34
2018-05-08T02:28:14.337Z,19.43
2018-05-08T02:29:14.418Z,19.35
2018-05-08T02:30:14.329Z,19.30
2018-05-08T02:31:14.345Z,19.32
2018-05-08T02:32:14.393Z,19.30
2018-05-08T02:33:14.405Z,19.35
2018-05-08T02:34:14.525Z,19.31
2018-05-08T02:35:14.432Z,19.31
2018-05-08T02:36:14.447Z,19.35
2018-05-08T02:37:14.443Z,19.31
2018-05-08T02:38:14.459Z,19.19
2018-05-08T02:39:14.570Z,19.30
2018-05-08T02:40:14.479Z,19.23
2018-05-08T02:41:14.501Z,19.24
2018-05-08T02:42:14.529Z,19.17
2018-05-08T02:43:14.547Z,19.23
2018-05-08T02:44:14.646Z,19.17
2018-05-08T02:45:14.550Z,19.25
2018-05-08T02:46:14.596Z,19.25
2018-05-08T02:47:14.578Z,19.30
2018-05-08T02:48:14.628Z,19.25
2018-05-08T02:49:14.736Z,19.25
2018-05-08T02:50:14.624Z,19.28
2018-05-08T02:51:14.672Z,19.28
2018-05-08T02:52:14.668Z,19.24
2018-05-08T02:53:14.799Z,19.25
2018-05-08T02:54:14.789Z,19.20
2018-05-08T02:55:14.711Z,19.16
2018-05-08T02:56:14.714Z,19.27
2018-05-08T02:57:14.728Z,19.27
2018-05-08T02:58:14.741Z,19.19
2018-05-08T02:59:14.853Z,19.24
2018-05-08T03:00:14.795Z,19.27
2018-05-08T03:01:14.819Z,19.27
2018-05-08T03:02:14.836Z,19.24
2018-05-08T03:03:14.844Z,19.19
2018-05-08T03:04:14.942Z,19.24
2018-05-08T03:05:14.870Z,19.25
2018-05-08T03:06:14.868Z,19.20
2018-05-08T03:07:14.874Z,19.27
2018-05-08T03:08:14.887Z,19.25
2018-05-08T03:09:15.008Z,19.19
2018-05-08T03:10:14.927Z,19.15
2018-05-08T03:11:14.930Z,19.17
2018-05-08T03:12:14.970Z,19.13
2018-05-08T03:13:14.955Z,19.13
2018-05-08T03:14:15.073Z,19.09
2018-05-08T03:15:15.004Z,19.07
2018-05-08T03:16:15.006Z,19.05
2018-05-08T03:17:15.016Z,18.99
2018-05-08T03:18:15.055Z,18.96
2018-05-08T03:19:15.150Z,18.99
2018-05-08T03:20:15.079Z,18.99
2018-05-08T03:21:15.088Z,19.02
2018-05-08T03:22:15.158Z,19.06
2018-05-08T03:23:15.114Z,19.02
2018-05-08T03:24:15.221Z,19.00
2018-05-08T03:25:15.135Z,19.02
2018-05-08T03:26:15.176Z,19.06
2018-05-08T03:27:15.156Z,19.07
2018-05-08T03:28:15.221Z,19.00
2018-05-08T03:29:15.319Z,18.99
2018-05-08T03:30:15.216Z,18.94
2018-05-08T03:31:15.236Z,18.89
2018-05-08T03:32:15.256Z,18.87
2018-05-08T03:33:15.243Z,18.86
2018-05-08T03:34:15.384Z,18.91
2018-05-08T03:35:15.283Z,18.93
2018-05-08T03:36:15.319Z,18.99
2018-05-08T03:37:15.331Z,18.99
2018-05-08T03:38:15.343Z,19.02
2018-05-08T03:39:15.451Z,18.89
2018-05-08T03:40:15.375Z,18.91
2018-05-08T03:41:15.366Z,18.87
2018-05-08T03:42:15.376Z,18.96
2018-05-08T03:43:15.406Z,18.93
2018-05-08T03:44:15.533Z,18.86
2018-05-08T03:45:15.451Z,18.86
2018-05-08T03:46:15.448Z,18.90
2018-05-08T03:47:15.472Z,18.79
2018-05-08T03:48:15.459Z,18.90
2018-05-08T03:49:15.604Z,18.89
2018-05-08T03:50:15.490Z,18.87
2018-05-08T03:51:15.531Z,18.78
2018-05-08T03:52:15.545Z,18.86
2018-05-08T03:53:15.561Z,18.72
2018-05-08T03:54:15.645Z,18.76
2018-05-08T03:55:15.593Z,18.71
2018-05-08T03:56:15.607Z,18.72
2018-05-08T03:57:15.649Z,18.68
2018-05-08T03:58:15.602Z,18.69
2018-05-08T03:59:15.645Z,18.72
2018-05-08T04:00:15.759Z,18.68
2018-05-08T04:01:15.680Z,18.71
2018-05-08T04:02:15.659Z,18.69
2018-05-08T04:03:15.701Z,18.69
2018-05-08T04:04:15.684Z,18.69
2018-05-08T04:05:15.815Z,18.75
2018-05-08T04:06:15.728Z,18.74
2018-05-08T04:07:15.743Z,18.72
2018-05-08T04:08:15.807Z,18.72
2018-05-08T04:09:15.757Z,18.71
2018-05-08T04:10:15.928Z,18.69
2018-05-08T04:11:15.817Z,18.71
2018-05-08T04:12:15.840Z,18.71
2018-05-08T04:13:15.817Z,18.75
2018-05-08T04:14:15.829Z,18.75
2018-05-08T04:15:15.948Z,18.75
2018-05-08T04:16:15.858Z,18.76
2018-05-08T04:17:15.902Z,18.72
2018-05-08T04:18:15.890Z,18.72
2018-05-08T04:19:15.905Z,18.72
2018-05-08T04:20:16.040Z,18.72
2018-05-08T04:21:15.935Z,18.72
2018-05-08T04:22:15.941Z,18.71
2018-05-08T04:23:15.956Z,18.76
2018-05-08T04:24:15.971Z,18.68
2018-05-08T04:25:16.084Z,18.69
2018-05-08T04:26:16.032Z,18.69
2018-05-08T04:27:16.023Z,18.72
2018-05-08T04:28:16.053Z,18.65
2018-05-08T04:29:16.075Z,18.63
2018-05-08T04:30:16.190Z,18.63
2018-05-08T04:31:16.076Z,18.50
2018-05-08T04:32:16.116Z,18.56
2018-05-08T04:33:16.107Z,18.61
2018-05-08T04:34:16.147Z,18.47
2018-05-08T04:35:16.223Z,18.51
2018-05-08T04:36:16.154Z,18.51
2018-05-08T04:37:16.183Z,18.50
2018-05-08T04:38:16.195Z,18.53
2018-05-08T04:39:16.211Z,18.49
2018-05-08T04:40:16.300Z,18.53
2018-05-08T04:41:16.212Z,18.50
2018-05-08T04:42:16.255Z,18.53
2018-05-08T04:43:16.268Z,18.51
2018-05-08T04:44:16.259Z,18.50
2018-05-08T04:45:16.449Z,18.49
2018-05-08T04:46:16.307Z,18.44
2018-05-08T04:47:16.392Z,18.53
2018-05-08T04:48:16.314Z,18.49
2018-05-08T04:49:16.324Z,18.39
2018-05-08T04:50:16.446Z,18.49
2018-05-08T04:51:16.350Z,18.41
2018-05-08T04:52:16.375Z,18.31
2018-05-08T04:53:16.377Z,18.39
2018-05-08T04:54:16.422Z,18.41
2018-05-08T04:55:16.550Z,18.39
2018-05-08T04:56:16.458Z,18.35
2018-05-08T04:57:16.462Z,18.44
2018-05-08T04:58:16.451Z,18.34
2018-05-08T04:59:16.490Z,18.36
2018-05-08T05:00:16.608Z,18.41
2018-05-08T05:01:16.494Z,18.39
2018-05-08T05:02:16.504Z,18.36
2018-05-08T05:03:16.550Z,18.42
2018-05-08T05:04:16.552Z,18.39
2018-05-08T05:05:16.649Z,18.42
2018-05-08T05:06:16.561Z,18.42
2018-05-08T05:07:16.576Z,18.39
2018-05-08T05:08:16.618Z,18.31
2018-05-08T05:09:16.634Z,18.31
2018-05-08T05:10:16.623Z,18.32
2018-05-08T05:11:16.761Z,18.26
2018-05-08T05:12:16.653Z,18.24
2018-05-08T05:13:16.656Z,18.24
2018-05-08T05:14:16.674Z,18.27
2018-05-08T05:15:16.685Z,18.26
2018-05-08T05:16:16.805Z,18.26
2018-05-08T05:17:16.719Z,18.26
2018-05-08T05:18:16.732Z,18.21
2018-05-08T05:19:16.746Z,18.24
2018-05-08T05:20:16.757Z,18.24
2018-05-08T05:21:16.898Z,18.27
2018-05-08T05:22:16.816Z,18.24
2018-05-08T05:23:16.806Z,18.32
2018-05-08T05:24:16.817Z,18.27
2018-05-08T05:25:16.834Z,18.32
2018-05-08T05:26:16.940Z,18.31
2018-05-08T05:27:16.858Z,18.29
2018-05-08T05:28:16.894Z,18.26
2018-05-08T05:29:16.887Z,18.31
2018-05-08T05:30:16.897Z,18.27
2018-05-08T05:31:17.023Z,18.32
2018-05-08T05:32:16.953Z,18.24
2018-05-08T05:33:16.972Z,18.24
2018-05-08T05:34:16.958Z,18.26
2018-05-08T05:35:16.969Z,18.20
2018-05-08T05:36:17.111Z,18.24
2018-05-08T05:37:16.996Z,18.23
2018-05-08T05:38:17.036Z,18.29
2018-05-08T05:39:17.050Z,18.21
2018-05-08T05:40:17.061Z,18.29
2018-05-08T05:41:17.179Z,18.20
2018-05-08T05:42:17.092Z,18.11
2018-05-08T05:43:17.107Z,18.14
2018-05-08T05:44:17.095Z,18.13
2018-05-08T05:45:17.111Z,18.13
2018-05-08T05:46:17.295Z,18.14
2018-05-08T05:47:17.166Z,18.23
2018-05-08T05:48:17.184Z,18.21
2018-05-08T05:49:17.190Z,18.26
2018-05-08T05:50:17.206Z,18.24
2018-05-08T05:51:17.306Z,18.27
2018-05-08T05:52:17.234Z,18.24
2018-05-08T05:53:17.293Z,18.32
2018-05-08T05:54:17.231Z,18.29
2018-05-08T05:55:17.270Z,18.29
2018-05-08T05:56:17.381Z,18.27
2018-05-08T05:57:17.274Z,18.42
2018-05-08T05:58:17.296Z,18.26
2018-05-08T05:59:17.310Z,18.41
2018-05-08T06:00:17.319Z,18.45
2018-05-08T06:01:17.465Z,18.32
2018-05-08T06:02:17.372Z,18.35
2018-05-08T06:03:17.388Z,18.36
2018-05-08T06:04:17.372Z,18.38
2018-05-08T06:05:17.388Z,18.42
2018-05-08T06:06:17.550Z,18.44
2018-05-08T06:07:17.441Z,18.35
2018-05-08T06:08:17.455Z,18.29
2018-05-08T06:09:17.469Z,18.31
2018-05-08T06:10:17.457Z,18.23
2018-05-08T06:11:17.645Z,18.27
2018-05-08T06:12:17.513Z,18.35
2018-05-08T06:13:17.500Z,18.27
2018-05-08T06:14:17.535Z,18.27
2018-05-08T06:15:17.527Z,18.24
2018-05-08T06:16:17.567Z,18.29
2018-05-08T06:17:17.735Z,18.26
2018-05-08T06:18:17.594Z,18.26
2018-05-08T06:19:17.614Z,18.23
2018-05-08T06:20:17.652Z,18.24
2018-05-08T06:21:17.608Z,18.26
2018-05-08T06:22:17.770Z,18.29
2018-05-08T06:23:17.634Z,18.24
2018-05-08T06:24:17.647Z,18.23
2018-05-08T06:25:17.690Z,18.20
2018-05-08T06:26:17.681Z,18.19
2018-05-08T06:27:17.790Z,18.21
2018-05-08T06:28:17.731Z,18.14
2018-05-08T06:29:17.748Z,18.27
2018-05-08T06:30:17.734Z,18.16
2018-05-08T06:31:17.765Z,18.13
2018-05-08T06:32:17.875Z,18.19
2018-05-08T06:33:17.805Z,18.27
2018-05-08T06:34:17.793Z,18.26
2018-05-08T06:35:17.805Z,18.20
2018-05-08T06:36:17.831Z,18.23
2018-05-08T06:37:17.967Z,18.23
2018-05-08T06:38:17.842Z,18.26
2018-05-08T06:39:17.887Z,18.29
2018-05-08T06:40:17.870Z,18.31
2018-05-08T06:41:17.915Z,18.23
2018-05-08T06:42:17.999Z,18.16
2018-05-08T06:43:17.916Z,18.10
2018-05-08T06:44:18.043Z,18.21
2018-05-08T06:45:17.969Z,18.19
2018-05-08T06:46:17.955Z,18.16
2018-05-08T06:47:18.087Z,18.16
2018-05-08T06:48:17.996Z,18.14
2018-05-08T06:49:18.032Z,18.11
2018-05-08T06:50:18.012Z,18.10
2018-05-08T06:51:18.024Z,18.08
2018-05-08T06:52:18.282Z,18.06
2018-05-08T06:53:18.080Z,18.11
2018-05-08T06:54:18.071Z,18.10
2018-05-08T06:55:18.088Z,18.05
2018-05-08T06:56:18.098Z,17.95
2018-05-08T06:57:18.284Z,17.99
2018-05-08T06:58:18.156Z,17.96
2018-05-08T06:59:18.163Z,17.99
2018-05-08T07:00:18.158Z,17.99
2018-05-08T07:01:18.193Z,17.92
2018-05-08T07:02:18.304Z,17.95
2018-05-08T07:03:18.194Z,17.86
2018-05-08T07:04:18.237Z,17.87
2018-05-08T07:05:18.222Z,17.90
2018-05-08T07:06:18.230Z,17.95
2018-05-08T07:07:18.347Z,17.92
2018-05-08T07:08:18.263Z,17.84
2018-05-08T07:09:18.287Z,17.86
2018-05-08T07:10:18.291Z,17.92
2018-05-08T07:11:18.300Z,17.92
2018-05-08T07:12:18.415Z,17.90
2018-05-08T07:13:18.326Z,17.90
2018-05-08T07:14:18.341Z,17.90
2018-05-08T07:15:18.362Z,17.87
2018-05-08T07:16:18.438Z,17.87
2018-05-08T07:17:18.488Z,17.95
2018-05-08T07:18:18.426Z,17.83
2018-05-08T07:19:18.427Z,17.88
2018-05-08T07:20:18.440Z,17.83
2018-05-08T07:21:18.547Z,17.90
2018-05-08T07:22:18.620Z,17.88
2018-05-08T07:23:18.482Z,17.84
2018-05-08T07:24:18.492Z,17.88
2018-05-08T07:25:18.511Z,17.88
2018-05-08T07:26:18.519Z,17.86
2018-05-08T07:27:18.548Z,17.90
2018-05-08T07:28:18.634Z,17.86
2018-05-08T07:29:18.574Z,17.79
2018-05-08T07:30:18.559Z,17.76
2018-05-08T07:31:18.581Z,17.80
2018-05-08T07:32:18.618Z,17.66
2018-05-08T07:33:18.733Z,17.66
2018-05-08T07:34:18.616Z,17.84
2018-05-08T07:35:18.628Z,17.77
2018-05-08T07:36:18.669Z,17.69
2018-05-08T07:37:18.659Z,17.71
2018-05-08T07:38:18.884Z,17.65
2018-05-08T07:39:18.685Z,17.71
2018-05-08T07:40:18.713Z,17.66
2018-05-08T07:41:18.726Z,17.63
2018-05-08T07:42:18.724Z,17.60
2018-05-08T07:43:18.865Z,17.63
2018-05-08T07:44:18.769Z,17.62
2018-05-08T07:45:18.830Z,17.65
2018-05-08T07:46:18.812Z,17.54
2018-05-08T07:47:18.827Z,17.47
2018-05-08T07:48:18.935Z,17.49
2018-05-08T07:49:18.849Z,17.57
2018-05-08T07:50:18.830Z,17.52
2018-05-08T07:51:18.869Z,17.50
2018-05-08T07:52:18.861Z,17.52
2018-05-08T07:53:18.975Z,17.55
2018-05-08T07:54:18.922Z,17.49
2018-05-08T07:55:18.905Z,17.55
2018-05-08T07:56:19.008Z,17.49
2018-05-08T07:57:19.229Z,17.50
2018-05-08T07:58:19.078Z,17.52
2018-05-08T07:59:18.952Z,17.50
2018-05-08T08:00:18.966Z,17.55
2018-05-08T08:01:18.977Z,17.54
2018-05-08T08:02:19.018Z,17.46
2018-05-08T08:03:19.223Z,17.47
2018-05-08T08:04:19.022Z,17.40
2018-05-08T08:05:19.051Z,17.38
2018-05-08T08:06:19.071Z,17.43
2018-05-08T08:07:19.069Z,17.38
2018-05-08T08:08:19.180Z,17.42
2018-05-08T08:09:19.117Z,17.40
2018-05-08T08:10:19.132Z,17.39
2018-05-08T08:11:19.127Z,17.36
2018-05-08T08:12:19.199Z,17.36
2018-05-08T08:13:19.275Z,17.32
2018-05-08T08:14:19.179Z,17.35
2018-05-08T08:15:19.187Z,17.36
2018-05-08T08:16:19.190Z,17.30
2018-05-08T08:17:19.199Z,17.40
2018-05-08T08:18:19.327Z,17.36
2018-05-08T08:19:19.220Z,17.40
2018-05-08T08:20:19.264Z,17.40
2018-05-08T08:21:19.247Z,17.45
2018-05-08T08:22:19.268Z,17.42
2018-05-08T08:23:19.400Z,17.47
2018-05-08T08:24:19.292Z,17.49
2018-05-08T08:25:19.331Z,17.54
2018-05-08T08:26:19.339Z,17.57
2018-05-08T08:27:19.345Z,17.54
2018-05-08T08:28:19.444Z,17.50
2018-05-08T08:29:19.382Z,17.62
2018-05-08T08:30:19.394Z,17.68
2018-05-08T08:31:19.378Z,17.62
2018-05-08T08:32:19.425Z,17.60
2018-05-08T08:33:19.556Z,17.68
2018-05-08T08:34:19.434Z,17.68
2018-05-08T08:35:19.448Z,17.66
2018-05-08T08:36:19.452Z,17.73
2018-05-08T08:37:19.464Z,17.58
2018-05-08T08:38:19.506Z,17.60
2018-05-08T08:39:19.593Z,17.66
2018-05-08T08:40:19.505Z,17.77
2018-05-08T08:41:19.531Z,17.81
2018-05-08T08:42:19.535Z,17.66
2018-05-08T08:43:19.563Z,17.79
2018-05-08T08:44:19.683Z,17.74
2018-05-08T08:45:19.602Z,17.77
2018-05-08T08:46:19.596Z,17.74
2018-05-08T08:47:19.630Z,17.63
2018-05-08T08:48:19.638Z,17.69
2018-05-08T08:49:19.738Z,17.73
2018-05-08T08:50:19.644Z,17.74
2018-05-08T08:51:19.679Z,17.81
2018-05-08T08:52:19.776Z,17.79
2018-05-08T08:53:19.708Z,17.80
2018-05-08T08:54:19.795Z,17.84
2018-05-08T08:55:19.707Z,17.81
2018-05-08T08:56:19.739Z,17.81
2018-05-08T08:57:19.765Z,17.80
2018-05-08T08:58:19.750Z,17.83
2018-05-08T08:59:19.862Z,17.86
2018-05-08T09:00:19.779Z,17.84
2018-05-08T09:01:19.809Z,17.87
2018-05-08T09:02:19.808Z,17.77
2018-05-08T09:03:19.823Z,17.90
2018-05-08T09:04:19.947Z,17.81
2018-05-08T09:05:19.879Z,17.84
2018-05-08T09:06:19.884Z,17.84
2018-05-08T09:07:19.898Z,17.79
2018-05-08T09:08:19.916Z,17.83
2018-05-08T09:09:20.029Z,17.77
2018-05-08T09:10:19.914Z,17.80
2018-05-08T09:11:20.014Z,17.86
2018-05-08T09:12:19.967Z,17.83
2018-05-08T09:13:19.956Z,17.87
2018-05-08T09:14:20.062Z,17.88
2018-05-08T09:15:20.009Z,17.86
2018-05-08T09:16:19.995Z,17.88
2018-05-08T09:17:20.017Z,17.92
2018-05-08T09:18:20.024Z,17.92
2018-05-08T09:19:20.136Z,17.92
2018-05-08T09:20:20.067Z,17.88
2018-05-08T09:21:20.063Z,17.92
2018-05-08T09:22:20.105Z,17.95
2018-05-08T09:23:20.092Z,17.84
2018-05-08T09:24:20.236Z,17.79
2018-05-08T09:25:20.127Z,17.81
2018-05-08T09:26:20.143Z,17.86
2018-05-08T09:27:20.145Z,17.88
2018-05-08T09:28:20.187Z,17.92
2018-05-08T09:29:20.270Z,17.90
2018-05-08T09:30:20.214Z,17.84
2018-05-08T09:31:20.211Z,17.86
2018-05-08T09:32:20.216Z,17.90
2018-05-08T09:33:20.231Z,17.94
2018-05-08T09:34:20.338Z,17.88
2018-05-08T09:35:20.268Z,17.87
2018-05-08T09:36:20.287Z,17.90
2018-05-08T09:37:20.280Z,17.86
2018-05-08T09:38:20.300Z,17.90
2018-05-08T09:39:20.410Z,17.92
2018-05-08T09:40:20.325Z,17.86
2018-05-08T09:41:20.341Z,17.92
2018-05-08T09:42:20.348Z,17.96
2018-05-08T09:43:20.364Z,17.99
2018-05-08T09:44:20.504Z,17.99
2018-05-08T09:45:20.393Z,17.98
2018-05-08T09:46:20.429Z,17.99
2018-05-08T09:47:20.424Z,18.08
2018-05-08T09:48:20.435Z,18.10
2018-05-08T09:49:20.598Z,18.01
2018-05-08T09:50:20.488Z,18.08
2018-05-08T09:51:20.475Z,18.13
2018-05-08T09:52:20.487Z,18.11
2018-05-08T09:53:20.506Z,18.05
2018-05-08T09:54:20.516Z,18.16
2018-05-08T09:55:20.636Z,18.17
2018-05-08T09:56:20.538Z,18.14
2018-05-08T09:57:20.582Z,18.21
2018-05-08T09:58:20.572Z,18.17
2018-05-08T09:59:20.596Z,18.19
2018-05-08T10:00:20.727Z,18.23
2018-05-08T10:01:20.634Z,18.27
2018-05-08T10:02:20.638Z,18.24
2018-05-08T10:03:20.660Z,18.27
2018-05-08T10:04:20.649Z,18.35
2018-05-08T10:05:20.773Z,18.27
2018-05-08T10:06:20.689Z,18.26
2018-05-08T10:07:20.724Z,18.29
2018-05-08T10:08:20.740Z,18.17
2018-05-08T10:09:20.724Z,18.23
2018-05-08T10:10:20.833Z,18.24
2018-05-08T10:11:20.760Z,18.24
2018-05-08T10:12:20.773Z,18.29
2018-05-08T10:13:20.782Z,18.29
2018-05-08T10:14:20.797Z,18.29
2018-05-08T10:15:20.915Z,18.29
2018-05-08T10:16:20.847Z,18.32
2018-05-08T10:17:20.849Z,18.32
2018-05-08T10:18:20.850Z,18.32
2018-05-08T10:19:20.889Z,18.32
2018-05-08T10:20:21.007Z,18.31
2018-05-08T10:21:20.892Z,18.29
2018-05-08T10:22:20.909Z,18.29
2018-05-08T10:23:20.921Z,18.29
2018-05-08T10:24:20.961Z,18.39
2018-05-08T10:25:21.049Z,18.50
2018-05-08T10:26:20.965Z,18.50
2018-05-08T10:27:21.002Z,18.61
2018-05-08T10:28:20.992Z,18.53
2018-05-08T10:29:21.034Z,18.60
2018-05-08T10:30:21.120Z,18.69
2018-05-08T10:31:21.050Z,18.68
2018-05-08T10:32:21.053Z,18.69
2018-05-08T10:33:21.068Z,18.68
2018-05-08T10:34:21.084Z,18.75
2018-05-08T10:35:21.228Z,18.69
2018-05-08T10:36:21.132Z,18.79
2018-05-08T10:37:21.125Z,18.79
2018-05-08T10:38:21.140Z,18.87
2018-05-08T10:39:21.184Z,18.90
2018-05-08T10:40:21.169Z,19.12
2018-05-08T10:41:21.195Z,19.09
2018-05-08T10:42:21.194Z,19.23
2018-05-08T10:43:21.248Z,19.35
2018-05-08T10:44:21.326Z,19.43
2018-05-08T10:45:21.270Z,19.52
2018-05-08T10:46:21.270Z,19.61
2018-05-08T10:47:21.300Z,19.75
2018-05-08T10:48:21.304Z,19.75
2018-05-08T10:49:21.433Z,19.89
2018-05-08T10:50:21.344Z,20.00
2018-05-08T10:51:21.358Z,20.10
2018-05-08T10:52:21.352Z,20.11
2018-05-08T10:53:21.366Z,20.18
2018-05-08T10:54:21.537Z,20.19
2018-05-08T10:55:21.399Z,20.20
2018-05-08T10:56:21.442Z,20.29
2018-05-08T10:57:21.453Z,20.27
2018-05-08T10:58:21.472Z,20.30
2018-05-08T10:59:21.463Z,20.30
2018-05-08T11:00:21.573Z,20.44
2018-05-08T11:01:21.496Z,20.46
2018-05-08T11:02:21.508Z,20.60
2018-05-08T11:03:21.525Z,20.71
2018-05-08T11:04:21.541Z,20.66
2018-05-08T11:05:21.669Z,20.71
2018-05-08T11:06:21.583Z,20.76
2018-05-08T11:07:21.602Z,20.91
2018-05-08T11:08:21.606Z,20.86
2018-05-08T11:09:21.625Z,21.00
2018-05-08T11:10:21.752Z,21.09
2018-05-08T11:11:21.669Z,21.16
2018-05-08T11:12:21.747Z,21.22
2018-05-08T11:13:21.722Z,21.30
2018-05-08T11:14:21.709Z,21.36
2018-05-08T11:15:21.878Z,21.28
2018-05-08T11:16:21.771Z,21.30
2018-05-08T11:17:21.766Z,21.38
2018-05-08T11:18:21.778Z,21.38
2018-05-08T11:19:21.807Z,21.43
2018-05-08T11:20:21.912Z,21.40
2018-05-08T11:21:21.855Z,21.55
2018-05-08T11:22:21.877Z,21.61
2018-05-08T11:23:21.902Z,21.64
2018-05-08T11:24:21.878Z,21.52
2018-05-08T11:25:22.003Z,21.51
2018-05-08T11:26:21.938Z,21.40
2018-05-08T11:27:21.958Z,21.23
2018-05-08T11:28:22.023Z,21.16
2018-05-08T11:29:21.965Z,20.98
2018-05-08T11:30:22.108Z,20.96
2018-05-08T11:31:22.013Z,20.94
2018-05-08T11:32:22.043Z,20.98
2018-05-08T11:33:22.051Z,20.88
2018-05-08T11:34:22.089Z,20.86
2018-05-08T11:35:22.215Z,20.83
2018-05-08T11:36:22.091Z,20.88
2018-05-08T11:37:22.109Z,20.86
2018-05-08T11:38:22.119Z,21.04
2018-05-08T11:39:22.235Z,21.04
2018-05-08T11:40:22.249Z,21.15
2018-05-08T11:41:22.172Z,21.12
2018-05-08T11:42:22.217Z,21.13
2018-05-08T11:43:22.229Z,21.23
2018-05-08T11:44:22.235Z,21.34
2018-05-08T11:45:22.364Z,21.30
2018-05-08T11:46:22.282Z,21.37
2018-05-08T11:47:22.276Z,21.31
2018-05-08T11:48:22.294Z,21.45
2018-05-08T11:49:22.308Z,21.40
2018-05-08T11:50:22.451Z,21.37
2018-05-08T11:51:22.380Z,21.38
2018-05-08T11:52:22.376Z,21.37
2018-05-08T11:53:22.383Z,21.38
2018-05-08T11:54:22.399Z,21.34
2018-05-08T11:55:22.521Z,21.37
2018-05-08T11:56:22.443Z,21.25
2018-05-08T11:57:22.447Z,21.19
2018-05-08T11:58:22.467Z,21.19
2018-05-08T11:59:22.493Z,21.22
2018-05-08T12:00:22.525Z,21.30
2018-05-08T12:01:22.616Z,21.27
2018-05-08T12:02:22.542Z,21.23
2018-05-08T12:03:22.595Z,21.33
2018-05-08T12:04:22.588Z,21.22
2018-05-08T12:05:22.617Z,21.31
2018-05-08T12:06:22.729Z,21.25
2018-05-08T12:07:22.622Z,21.23
2018-05-08T12:08:22.653Z,21.22
2018-05-08T12:09:22.655Z,21.38
2018-05-08T12:10:22.701Z,21.38
2018-05-08T12:11:22.795Z,21.51
2018-05-08T12:12:22.722Z,21.41
2018-05-08T12:13:22.729Z,21.38
2018-05-08T12:14:22.742Z,21.41
2018-05-08T12:15:23.791Z,21.34
2018-05-08T12:16:22.901Z,21.40
2018-05-08T12:17:22.824Z,21.40
2018-05-08T12:18:22.813Z,21.30
2018-05-08T12:19:22.861Z,21.22
2018-05-08T12:20:22.857Z,21.25
2018-05-08T12:21:22.967Z,21.15
2018-05-08T12:22:22.904Z,21.12
2018-05-08T12:23:22.926Z,21.09
2018-05-08T12:24:22.947Z,21.01
2018-05-08T12:25:22.958Z,20.96
2018-05-08T12:26:23.040Z,20.94
2018-05-08T12:27:22.965Z,20.98
2018-05-08T12:28:23.008Z,21.03
2018-05-08T12:29:23.022Z,20.86
2018-05-08T12:30:23.044Z,20.88
2018-05-08T12:31:23.133Z,20.94
2018-05-08T12:32:23.057Z,21.00
2018-05-08T12:33:23.064Z,21.04
2018-05-08T12:34:23.106Z,21.03
2018-05-08T12:35:23.123Z,21.01
2018-05-08T12:36:23.211Z,21.06
2018-05-08T12:37:23.128Z,21.06
2018-05-08T12:38:23.171Z,20.97
2018-05-08T12:39:23.160Z,20.97
2018-05-08T12:40:23.182Z,21.01
2018-05-08T12:41:23.357Z,20.98
2018-05-08T12:42:23.234Z,20.93
2018-05-08T12:43:23.254Z,21.00
2018-05-08T12:44:23.274Z,21.03
2018-05-08T12:45:23.275Z,21.04
2018-05-08T12:47:23.420Z,21.01
2018-05-08T12:48:23.333Z,21.13
2018-05-08T12:49:23.337Z,21.04
2018-05-08T12:50:23.347Z,21.06
2018-05-08T12:51:23.360Z,21.16
2018-05-08T12:52:23.527Z,21.31
2018-05-08T12:53:23.406Z,21.51